Time;durP1;ratioP1;P1;durP2;ratioP2;P2;SDS_P1;SDS_P2;PMS_P1;PMS_P2;Temp;Humidity;BMP_temperature;BMP_pressure;BME280_temperature;BME280_humidity;BME280_pressure;Samples;Min_cycle;Max_cycle;Signal;HPM_P1;HPM_P2
2023/01/04 00:01:09;;;;;;;2.35;1.20;;;11.20;99.90;;;;;;5000461;28;20025;-89
2023/01/04 00:03:35;;;;;;;3.20;1.23;;;11.20;99.90;;;;;;4976320;28;20034;-89
2023/01/04 00:06:05;;;;;;;2.87;1.10;;;11.20;99.90;;;;;;4998362;28;20454;-88
2023/01/04 00:08:31;;;;;;;2.03;1.00;;;11.20;99.90;;;;;;5007163;28;20033;-88
2023/01/04 00:11:18;;;;;;;1.98;1.00;;;11.20;99.90;;;;;;5020100;28;20021;-88
2023/01/04 00:13:45;;;;;;;3.17;1.00;;;11.20;99.90;;;;;;5016300;28;20028;-89
2023/01/04 00:16:14;;;;;;;1.83;0.88;;;11.20;99.90;;;;;;4997725;28;20040;-88
2023/01/04 00:18:40;;;;;;;2.40;1.00;;;11.20;99.90;;;;;;4998399;28;20029;-89
2023/01/04 00:21:10;;;;;;;3.53;0.90;;;11.20;99.90;;;;;;5001449;28;20443;-88
2023/01/04 00:23:37;;;;;;;3.28;1.30;;;11.20;99.90;;;;;;4997094;28;20199;-91
2023/01/04 00:26:12;;;;;;;2.63;1.10;;;11.30;99.90;;;;;;5021731;28;20444;-90
2023/01/04 00:28:38;;;;;;;2.83;0.90;;;11.30;99.90;;;;;;5007078;28;20320;-87
2023/01/04 00:31:06;;;;;;;2.13;0.80;;;11.30;99.90;;;;;;5034910;28;20766;-88
2023/01/04 00:33:32;;;;;;;1.15;0.80;;;11.30;99.90;;;;;;4984173;28;20461;-91
2023/01/04 00:36:03;;;;;;;1.40;0.85;;;11.30;99.90;;;;;;5004104;28;20112;-88
2023/01/04 00:38:28;;;;;;;1.30;0.93;;;11.40;99.90;;;;;;5024844;28;20040;-87
2023/01/04 00:40:54;;;;;;;1.10;0.88;;;11.40;99.90;;;;;;4998467;28;20025;-88
2023/01/04 00:43:20;;;;;;;2.00;0.90;;;11.40;99.90;;;;;;5023062;28;20178;-89
2023/01/04 00:45:46;;;;;;;2.22;1.00;;;11.40;99.90;;;;;;5036277;28;20489;-88
2023/01/04 00:48:11;;;;;;;1.73;0.93;;;11.40;99.90;;;;;;5016199;28;20026;-87
2023/01/04 00:50:37;;;;;;;1.10;0.80;;;11.40;99.90;;;;;;4997842;28;20215;-88
2023/01/04 00:53:03;;;;;;;1.73;0.73;;;11.40;99.90;;;;;;5001073;28;20025;-90
2023/01/04 00:55:29;;;;;;;2.05;0.80;;;11.50;99.90;;;;;;4995442;28;20349;-87
2023/01/04 00:57:57;;;;;;;1.38;0.80;;;11.50;99.90;;;;;;4994596;28;20053;-91
2023/01/04 01:00:22;;;;;;;1.47;0.90;;;11.50;99.90;;;;;;5013870;28;20029;-88
2023/01/04 01:02:48;;;;;;;1.15;1.00;;;11.50;99.90;;;;;;5001000;28;20476;-90
2023/01/04 01:05:14;;;;;;;1.85;0.90;;;11.50;99.90;;;;;;5017660;28;20468;-88
2023/01/04 01:07:40;;;;;;;1.90;1.10;;;11.50;99.90;;;;;;4994574;28;20540;-88
2023/01/04 01:10:06;;;;;;;1.35;1.00;;;11.60;99.90;;;;;;4997567;28;20164;-87
2023/01/04 01:12:31;;;;;;;2.13;0.80;;;11.60;99.90;;;;;;5003730;28;20286;-87
2023/01/04 01:14:57;;;;;;;0.95;0.70;;;11.60;99.90;;;;;;5036404;28;20043;-89
2023/01/04 01:17:23;;;;;;;2.45;0.80;;;11.60;99.90;;;;;;4996764;28;20150;-90
2023/01/04 01:19:49;;;;;;;1.60;1.00;;;11.60;99.90;;;;;;5000841;28;20018;-90
2023/01/04 01:22:14;;;;;;;1.60;0.80;;;11.60;99.90;;;;;;4994533;28;20024;-89
2023/01/04 01:24:41;;;;;;;1.67;0.80;;;11.60;99.90;;;;;;5016962;28;20036;-88
2023/01/04 01:27:09;;;;;;;1.20;0.90;;;11.60;99.90;;;;;;4993018;28;20025;-90
2023/01/04 01:29:35;;;;;;;1.58;0.73;;;11.60;99.90;;;;;;4991395;28;20146;-88
2023/01/04 01:32:00;;;;;;;1.33;0.90;;;11.70;99.90;;;;;;5004521;28;20289;-89
2023/01/04 01:34:26;;;;;;;1.38;0.70;;;11.70;99.90;;;;;;4994873;28;20310;-87
2023/01/04 01:36:52;;;;;;;1.70;1.00;;;11.70;99.90;;;;;;4997163;28;20079;-87
2023/01/04 01:39:18;;;;;;;1.33;0.73;;;11.70;99.90;;;;;;5032950;28;20031;-86
2023/01/04 01:41:44;;;;;;;1.13;0.90;;;11.70;99.90;;;;;;4994569;28;20368;-88
2023/01/04 01:44:41;;;;;;;1.70;0.90;;;11.70;99.90;;;;;;5002592;28;20117;-87
2023/01/04 01:47:33;;;;;;;1.15;0.90;;;11.70;99.90;;;;;;5015219;28;20504;-89
2023/01/04 01:49:59;;;;;;;1.30;1.00;;;11.70;99.90;;;;;;5032609;28;20246;-87
2023/01/04 01:52:33;;;;;;;0.80;0.80;;;11.70;99.90;;;;;;4976834;28;20709;-87
2023/01/04 01:55:03;;;;;;;1.33;0.90;;;11.70;99.90;;;;;;5016826;28;20021;-88
2023/01/04 01:57:33;;;;;;;2.00;0.93;;;11.70;99.90;;;;;;4988897;28;20075;-87
2023/01/04 02:00:03;;;;;;;1.80;0.85;;;11.70;99.90;;;;;;5024813;28;20102;-86
2023/01/04 02:02:29;;;;;;;2.10;1.17;;;11.70;99.90;;;;;;5016602;28;20234;-89
2023/01/04 02:04:57;;;;;;;1.20;0.90;;;11.70;99.90;;;;;;5003907;28;20036;-86
2023/01/04 02:07:26;;;;;;;1.65;1.08;;;11.80;99.90;;;;;;5011818;28;20029;-87
2023/01/04 02:09:54;;;;;;;1.40;0.90;;;11.80;99.90;;;;;;4981834;28;20083;-88
2023/01/04 02:12:19;;;;;;;2.00;0.90;;;11.80;99.90;;;;;;4989581;28;20055;-89
2023/01/04 02:14:48;;;;;;;1.70;1.10;;;11.80;99.90;;;;;;5003150;28;20390;-88
2023/01/04 02:17:33;;;;;;;2.13;1.25;;;11.80;99.90;;;;;;5011502;28;20028;-87
2023/01/04 02:20:13;;;;;;;1.53;1.20;;;11.80;99.90;;;;;;5027812;28;20033;-89
2023/01/04 02:23:15;;;;;;;1.27;0.85;;;11.90;99.90;;;;;;5012308;28;20647;-89
2023/01/04 02:25:52;;;;;;;2.67;1.10;;;11.90;99.90;;;;;;4993567;28;20017;-89
2023/01/04 02:28:37;;;;;;;1.70;1.00;;;11.90;99.90;;;;;;5006588;28;20103;-88
2023/01/04 02:31:47;;;;;;;2.33;1.00;;;12.00;99.90;;;;;;5009967;28;20021;-86
2023/01/04 02:34:22;;;;;;;1.83;1.00;;;12.00;99.90;;;;;;4983075;28;20048;-87
2023/01/04 02:37:12;;;;;;;1.90;1.00;;;12.00;99.90;;;;;;4998934;28;20333;-88
2023/01/04 02:40:07;;;;;;;2.72;1.23;;;12.00;99.90;;;;;;4994487;28;20036;-88
2023/01/04 02:45:31;;;;;;;1.30;0.90;;;12.00;99.90;;;;;;5028956;28;20139;-90
2023/01/04 02:50:55;;;;;;;1.30;1.00;;;12.10;99.90;;;;;;5015078;28;20029;-87
2023/01/04 02:53:32;;;;;;;2.53;1.17;;;12.20;99.90;;;;;;5012376;28;20154;-88
2023/01/04 02:56:00;;;;;;;2.22;1.40;;;12.20;99.90;;;;;;5013721;28;20265;-89
2023/01/04 02:58:44;;;;;;;2.88;1.40;;;12.20;99.90;;;;;;4969959;28;20312;-89
2023/01/04 03:07:20;;;;;;;3.35;1.40;;;12.30;99.90;;;;;;5012215;28;20045;-89
2023/01/04 03:09:49;;;;;;;2.10;1.45;;;12.40;99.90;;;;;;5013566;28;20099;-89
2023/01/04 03:12:31;;;;;;;2.42;1.40;;;12.40;99.90;;;;;;5010746;28;20024;-88
2023/01/04 03:15:09;;;;;;;2.73;1.50;;;12.40;99.90;;;;;;4988770;28;20028;-90
2023/01/04 03:17:41;;;;;;;3.40;1.30;;;12.40;99.90;;;;;;5008686;28;20039;-89
2023/01/04 03:20:10;;;;;;;2.13;1.50;;;12.50;99.90;;;;;;4986948;28;20071;-89
2023/01/04 03:37:41;;;;;;;2.30;1.20;;;12.60;99.90;;;;;;5007640;28;20315;-90
2023/01/04 03:49:32;;;;;;;3.58;1.40;;;12.70;99.90;;;;;;5010104;28;20198;-89
2023/01/04 03:52:02;;;;;;;3.55;1.27;;;12.70;99.90;;;;;;4997867;28;20024;-89
2023/01/04 03:54:33;;;;;;;2.58;1.48;;;12.70;99.90;;;;;;5031363;28;20919;-90
2023/01/04 03:57:00;;;;;;;2.30;1.23;;;12.80;99.90;;;;;;5016953;28;20018;-89
2023/01/04 03:59:26;;;;;;;2.25;1.20;;;12.70;99.90;;;;;;4996406;28;20713;-89
2023/01/04 04:01:52;;;;;;;2.50;1.40;;;12.70;99.90;;;;;;4998419;28;20029;-90
2023/01/04 04:09:47;;;;;;;3.17;1.00;;;12.90;99.90;;;;;;5019075;28;20524;-87
2023/01/04 04:12:13;;;;;;;2.60;1.25;;;12.90;99.90;;;;;;5002812;28;20017;-89
2023/01/04 04:14:39;;;;;;;1.97;1.30;;;12.80;99.90;;;;;;4997822;28;20301;-92
2023/01/04 04:17:05;;;;;;;2.55;1.10;;;12.90;99.90;;;;;;4996667;28;20360;-89
2023/01/04 04:19:30;;;;;;;3.40;1.20;;;12.90;99.90;;;;;;4999525;28;20389;-88
2023/01/04 04:21:56;;;;;;;1.52;1.10;;;12.90;99.90;;;;;;4993539;28;20037;-89
2023/01/04 04:24:24;;;;;;;2.65;1.20;;;12.90;99.90;;;;;;4998291;28;20127;-88
2023/01/04 04:26:53;;;;;;;2.50;1.23;;;12.90;99.90;;;;;;5002044;28;20477;-87
2023/01/04 04:29:19;;;;;;;2.10;1.17;;;13.00;99.90;;;;;;4977782;28;20357;-90
2023/01/04 04:31:45;;;;;;;2.17;1.10;;;13.00;99.90;;;;;;5020321;28;20091;-89
2023/01/04 04:34:11;;;;;;;2.53;1.20;;;13.00;99.90;;;;;;4995866;28;20708;-89
2023/01/04 04:36:38;;;;;;;2.40;1.23;;;13.10;99.90;;;;;;4994101;28;20527;-88
2023/01/04 04:39:04;;;;;;;2.25;1.10;;;13.10;99.90;;;;;;5002962;28;20025;-89
2023/01/04 04:41:37;;;;;;;2.17;1.20;;;13.10;99.90;;;;;;5006772;28;20441;-92
2023/01/04 04:44:05;;;;;;;1.90;1.10;;;13.10;99.90;;;;;;5031061;28;20110;-88
2023/01/04 04:46:30;;;;;;;2.58;1.20;;;13.20;99.90;;;;;;4985697;28;20478;-89
2023/01/04 04:48:56;;;;;;;2.75;1.00;;;13.20;99.90;;;;;;4997218;28;20028;-89
2023/01/04 04:51:22;;;;;;;1.10;1.00;;;13.20;99.90;;;;;;5014928;28;20599;-88
2023/01/04 04:53:48;;;;;;;3.00;1.30;;;13.20;99.90;;;;;;4993882;28;20018;-91
2023/01/04 04:56:14;;;;;;;2.15;1.10;;;13.30;99.90;;;;;;4996057;28;20052;-87
2023/01/04 04:58:40;;;;;;;2.57;1.20;;;13.30;99.90;;;;;;5019241;28;20583;-88
2023/01/04 05:01:06;;;;;;;2.92;1.20;;;13.30;99.90;;;;;;4986703;28;20021;-91
2023/01/04 05:03:34;;;;;;;1.83;1.00;;;13.30;99.90;;;;;;5006083;28;20170;-92
2023/01/04 05:06:00;;;;;;;1.85;1.10;;;13.40;99.90;;;;;;4991271;28;20125;-88
2023/01/04 05:08:26;;;;;;;2.25;0.90;;;13.40;99.90;;;;;;4984654;28;20151;-89
2023/01/04 05:10:52;;;;;;;1.00;0.90;;;13.40;99.90;;;;;;4985035;28;20069;-89
2023/01/04 05:13:17;;;;;;;2.35;0.93;;;13.40;99.90;;;;;;4993115;28;20040;-90
2023/01/04 05:15:48;;;;;;;1.37;0.80;;;13.40;99.90;;;;;;4958654;28;20053;-89
2023/01/04 05:18:17;;;;;;;1.88;0.93;;;13.50;99.90;;;;;;4989616;28;20574;-89
2023/01/04 05:20:43;;;;;;;1.77;0.93;;;13.50;99.90;;;;;;4979185;28;20021;-90
2023/01/04 05:23:11;;;;;;;1.55;0.93;;;13.50;99.90;;;;;;4996643;28;20041;-88
2023/01/04 05:25:38;;;;;;;2.30;0.90;;;13.50;99.90;;;;;;4987031;28;20208;-90
2023/01/04 05:28:04;;;;;;;1.70;0.80;;;13.50;99.90;;;;;;4996845;28;20033;-89
2023/01/04 05:33:19;;;;;;;1.23;0.85;;;13.50;99.90;;;;;;4991226;28;20025;-92
2023/01/04 05:35:46;;;;;;;1.38;0.80;;;13.50;99.90;;;;;;4990390;28;20270;-89
2023/01/04 05:38:13;;;;;;;1.07;0.90;;;13.50;99.90;;;;;;4980357;28;20038;-90
2023/01/04 05:40:38;;;;;;;1.95;0.93;;;13.60;99.90;;;;;;4972664;28;20036;-88
2023/01/04 05:43:04;;;;;;;1.40;0.90;;;13.60;99.90;;;;;;4979948;28;20489;-88
2023/01/04 05:45:30;;;;;;;1.20;0.77;;;13.60;99.90;;;;;;4980611;28;20728;-90
2023/01/04 05:47:56;;;;;;;1.00;0.80;;;13.60;99.90;;;;;;4966575;28;20599;-90
2023/01/04 05:50:22;;;;;;;1.70;0.75;;;13.50;99.90;;;;;;4975382;28;20018;-92
2023/01/04 05:52:49;;;;;;;1.03;0.90;;;13.50;99.90;;;;;;4981055;28;20605;-89
2023/01/04 05:55:15;;;;;;;1.83;0.90;;;13.50;99.90;;;;;;4985423;28;20478;-92
2023/01/04 05:57:41;;;;;;;1.73;1.20;;;13.40;99.90;;;;;;4980519;28;20366;-88
2023/01/04 06:00:09;;;;;;;2.35;0.90;;;13.40;99.90;;;;;;4981636;28;20024;-91
2023/01/04 06:02:35;;;;;;;1.17;0.83;;;13.50;99.90;;;;;;4975054;28;20289;-90
2023/01/04 06:05:01;;;;;;;1.30;0.73;;;13.50;99.90;;;;;;5009120;28;20084;-90
2023/01/04 06:07:28;;;;;;;1.52;0.85;;;13.50;99.90;;;;;;5003140;28;20128;-91
2023/01/04 06:09:55;;;;;;;1.92;0.90;;;13.50;99.90;;;;;;5015556;28;20029;-89
2023/01/04 06:12:21;;;;;;;2.40;1.00;;;13.60;99.90;;;;;;5003719;28;20017;-89
2023/01/04 06:14:46;;;;;;;1.40;0.80;;;13.60;99.90;;;;;;4998499;28;20021;-88
2023/01/04 06:17:13;;;;;;;1.23;0.70;;;13.60;99.90;;;;;;4978168;28;20021;-89
2023/01/04 06:19:39;;;;;;;1.00;0.80;;;13.70;99.90;;;;;;5016021;28;20013;-91
2023/01/04 06:22:05;;;;;;;1.43;0.60;;;13.70;99.90;;;;;;4993504;28;20389;-91
2023/01/04 06:24:32;;;;;;;2.17;0.85;;;13.70;99.90;;;;;;5018944;28;20229;-89
2023/01/04 06:26:59;;;;;;;0.60;0.60;;;13.80;99.90;;;;;;4996811;28;20086;-89
2023/01/04 06:29:25;;;;;;;0.95;0.70;;;13.80;99.90;;;;;;4986964;28;20036;-91
2023/01/04 06:31:51;;;;;;;0.77;0.70;;;13.90;99.90;;;;;;5003119;28;20504;-90
2023/01/04 06:34:17;;;;;;;0.88;0.60;;;13.90;99.90;;;;;;4980429;28;20441;-89
2023/01/04 06:36:43;;;;;;;1.20;0.60;;;13.90;99.90;;;;;;5034248;28;20021;-90
2023/01/04 06:39:09;;;;;;;1.90;0.60;;;13.90;99.90;;;;;;4994293;28;20142;-91
2023/01/04 06:41:35;;;;;;;1.52;0.70;;;13.90;99.90;;;;;;5021859;28;20165;-90
2023/01/04 06:44:01;;;;;;;0.57;0.57;;;13.90;99.90;;;;;;4990440;28;20021;-88
2023/01/04 06:46:27;;;;;;;1.27;0.70;;;13.90;99.90;;;;;;4965048;28;20035;-91
2023/01/04 06:48:53;;;;;;;0.60;0.60;;;13.90;99.90;;;;;;5012714;28;20025;-91
2023/01/04 06:51:19;;;;;;;1.02;0.60;;;13.90;99.90;;;;;;5032547;28;20029;-88
2023/01/04 06:53:45;;;;;;;0.97;0.70;;;13.90;99.90;;;;;;4990438;28;20045;-90
2023/01/04 06:56:11;;;;;;;0.80;0.65;;;13.90;99.90;;;;;;5002237;28;20056;-90
2023/01/04 06:58:37;;;;;;;2.60;0.80;;;13.90;99.90;;;;;;5007319;28;20080;-89
2023/01/04 07:01:03;;;;;;;1.60;0.90;;;14.00;99.90;;;;;;5028074;28;20013;-87
2023/01/04 07:03:29;;;;;;;1.52;0.75;;;13.90;99.90;;;;;;4992380;28;20082;-86
2023/01/04 07:05:55;;;;;;;1.05;0.70;;;13.90;99.90;;;;;;4988540;28;20198;-92
2023/01/04 07:08:20;;;;;;;0.97;0.80;;;14.00;99.90;;;;;;5013342;28;20040;-91
2023/01/04 07:10:46;;;;;;;2.35;0.80;;;13.90;99.90;;;;;;5006019;28;20110;-90
2023/01/04 07:13:12;;;;;;;1.10;0.70;;;14.00;99.90;;;;;;5016445;28;20016;-91
2023/01/04 07:15:38;;;;;;;0.98;0.80;;;14.00;99.90;;;;;;4971457;28;20036;-89
2023/01/04 07:18:10;;;;;;;1.15;0.80;;;14.00;99.90;;;;;;5015935;28;20048;-91
2023/01/04 07:20:37;;;;;;;1.23;0.80;;;14.00;99.90;;;;;;4976255;28;20031;-89
2023/01/04 07:23:04;;;;;;;2.30;0.93;;;14.10;99.90;;;;;;5014907;28;20484;-90
2023/01/04 07:25:30;;;;;;;1.48;0.88;;;14.00;99.90;;;;;;4998770;28;21372;-91
2023/01/04 07:27:55;;;;;;;1.17;0.80;;;14.10;99.90;;;;;;4997114;28;20041;-91
2023/01/04 07:30:22;;;;;;;1.73;0.90;;;14.10;99.90;;;;;;4992074;28;20597;-91
2023/01/04 07:32:50;;;;;;;1.00;0.80;;;14.10;99.90;;;;;;5009278;28;21142;-91
2023/01/04 07:35:16;;;;;;;3.63;1.00;;;14.10;99.90;;;;;;4979992;28;20543;-89
2023/01/04 07:37:42;;;;;;;1.83;0.80;;;14.10;99.90;;;;;;5010470;28;20170;-90
2023/01/04 07:40:09;;;;;;;2.70;1.00;;;14.10;99.90;;;;;;5010298;28;20693;-88
2023/01/04 07:42:35;;;;;;;2.28;0.90;;;14.10;99.90;;;;;;5015097;28;20290;-91
2023/01/04 07:45:02;;;;;;;1.00;0.80;;;14.20;99.90;;;;;;4984731;28;20369;-92
2023/01/04 07:47:28;;;;;;;1.83;0.93;;;14.20;99.90;;;;;;4994249;28;20029;-87
2023/01/04 07:49:54;;;;;;;1.70;0.80;;;14.20;99.90;;;;;;4992036;28;20031;-91
2023/01/04 07:52:20;;;;;;;2.63;0.90;;;14.20;99.90;;;;;;4995967;28;20103;-89
2023/01/04 07:54:45;;;;;;;1.65;0.80;;;14.20;99.90;;;;;;5004773;28;20697;-91
2023/01/04 07:57:11;;;;;;;1.98;0.90;;;14.20;99.90;;;;;;5003772;28;20080;-91
2023/01/04 07:59:38;;;;;;;1.60;0.80;;;14.20;99.90;;;;;;5027236;28;20025;-90
2023/01/04 08:02:04;;;;;;;1.30;0.70;;;14.20;99.90;;;;;;5006925;28;20222;-89
2023/01/04 08:04:29;;;;;;;2.78;1.13;;;14.30;99.90;;;;;;4989588;28;20080;-88
2023/01/04 08:06:55;;;;;;;1.87;1.00;;;14.30;99.90;;;;;;4956727;28;20641;-89
2023/01/04 08:09:23;;;;;;;1.55;0.70;;;14.30;99.90;;;;;;4993929;28;20050;-91
2023/01/04 08:11:50;;;;;;;1.20;0.73;;;14.30;99.90;;;;;;5005430;28;20121;-93
2023/01/04 08:14:16;;;;;;;0.82;0.65;;;14.40;99.90;;;;;;4994564;28;20025;-90
2023/01/04 08:16:43;;;;;;;3.20;0.90;;;14.30;99.90;;;;;;4963808;28;20099;-92
2023/01/04 08:19:15;;;;;;;2.30;0.90;;;14.40;99.90;;;;;;5011383;28;20983;-90
2023/01/04 08:21:41;;;;;;;1.17;0.80;;;14.40;99.90;;;;;;4986836;28;20248;-90
2023/01/04 08:24:14;;;;;;;1.17;0.80;;;14.40;99.90;;;;;;4981443;28;20085;-90
2023/01/04 08:26:40;;;;;;;1.98;0.80;;;14.40;99.90;;;;;;4986879;28;20478;-90
2023/01/04 08:29:05;;;;;;;1.25;0.85;;;14.40;99.90;;;;;;4997656;28;20499;-91
2023/01/04 08:31:32;;;;;;;2.50;0.90;;;14.40;99.90;;;;;;4993414;28;20017;-89
2023/01/04 08:34:02;;;;;;;1.47;0.70;;;14.40;99.90;;;;;;4972503;28;20412;-91
2023/01/04 08:36:49;;;;;;;1.27;0.80;;;14.40;99.90;;;;;;4991181;28;20393;-91
2023/01/04 08:39:15;;;;;;;1.30;0.80;;;14.40;99.90;;;;;;4983619;28;20662;-89
2023/01/04 08:41:50;;;;;;;1.08;0.80;;;14.30;99.90;;;;;;4991551;28;20022;-90
2023/01/04 08:44:17;;;;;;;1.73;1.00;;;14.30;99.90;;;;;;5012290;28;20099;-90
2023/01/04 08:46:44;;;;;;;1.40;0.80;;;14.20;99.90;;;;;;4995920;28;20144;-89
2023/01/04 08:49:10;;;;;;;1.55;0.95;;;14.20;99.90;;;;;;4988634;28;20354;-90
2023/01/04 08:51:36;;;;;;;2.38;0.82;;;14.20;99.90;;;;;;4994225;28;20025;-87
2023/01/04 08:54:02;;;;;;;1.53;0.80;;;14.10;99.90;;;;;;4962966;28;20021;-90
2023/01/04 08:56:29;;;;;;;1.25;0.70;;;14.10;99.90;;;;;;4979293;28;20120;-92
2023/01/04 08:58:55;;;;;;;1.65;0.80;;;14.10;99.90;;;;;;4973723;28;20280;-88
2023/01/04 09:01:21;;;;;;;2.72;0.80;;;14.10;99.90;;;;;;4983801;28;20694;-91
2023/01/04 09:03:47;;;;;;;1.77;0.77;;;14.10;99.90;;;;;;4971643;28;20060;-91
2023/01/04 09:06:14;;;;;;;1.95;0.70;;;14.10;99.90;;;;;;5017401;28;20032;-89
2023/01/04 09:08:42;;;;;;;1.77;0.85;;;14.10;99.90;;;;;;4972724;28;20110;-91
2023/01/04 09:11:12;;;;;;;1.45;0.90;;;14.10;99.90;;;;;;5006796;28;20029;-90
2023/01/04 09:13:38;;;;;;;2.37;0.97;;;14.20;99.90;;;;;;5010012;28;20118;-87
2023/01/04 09:16:07;;;;;;;1.75;0.85;;;14.20;99.90;;;;;;5021454;28;20083;-91
2023/01/04 09:18:34;;;;;;;2.15;0.80;;;14.20;99.90;;;;;;4997640;28;20025;-88
2023/01/04 09:21:12;;;;;;;2.03;1.02;;;14.30;99.90;;;;;;4998196;28;20364;-90
2023/01/04 09:23:38;;;;;;;1.42;0.80;;;14.30;99.90;;;;;;4990639;28;20121;-90
2023/01/04 09:26:10;;;;;;;2.07;0.70;;;14.30;99.90;;;;;;5016145;28;20078;-91
2023/01/04 09:28:36;;;;;;;2.17;0.90;;;14.40;99.90;;;;;;4991867;28;20123;-92
2023/01/04 09:31:07;;;;;;;2.50;0.98;;;14.50;99.90;;;;;;5028262;28;20017;-92
2023/01/04 09:33:33;;;;;;;1.15;0.75;;;14.50;99.90;;;;;;4998898;28;20025;-90
2023/01/04 09:36:04;;;;;;;1.98;0.77;;;14.50;99.90;;;;;;4995814;28;20029;-90
2023/01/04 09:38:32;;;;;;;2.50;0.80;;;14.60;99.90;;;;;;4988841;28;20504;-90
2023/01/04 09:41:27;;;;;;;3.20;0.93;;;14.60;99.90;;;;;;5007997;28;20303;-89
2023/01/04 09:43:55;;;;;;;1.85;0.90;;;14.60;99.90;;;;;;5009358;28;20386;-90
2023/01/04 09:46:59;;;;;;;2.17;0.80;;;14.70;99.90;;;;;;4996696;28;20021;-89
2023/01/04 09:49:30;;;;;;;3.20;0.90;;;14.70;99.90;;;;;;4939802;28;20053;-90
2023/01/04 09:52:17;;;;;;;1.73;0.80;;;14.70;99.90;;;;;;4980003;28;20029;-92
2023/01/04 09:55:02;;;;;;;1.52;0.80;;;14.70;99.90;;;;;;4986056;28;20638;-90
2023/01/04 09:57:54;;;;;;;3.10;1.00;;;14.70;99.90;;;;;;5000357;28;20033;-91
2023/01/04 10:00:39;;;;;;;3.83;1.08;;;14.70;99.90;;;;;;5010776;28;20039;-88
2023/01/04 10:03:22;;;;;;;1.75;0.75;;;14.70;99.90;;;;;;5015100;28;20029;-90
2023/01/04 10:05:49;;;;;;;2.27;0.90;;;14.80;99.90;;;;;;4973533;28;20576;-93
2023/01/04 10:08:17;;;;;;;3.28;0.80;;;14.80;99.90;;;;;;4979917;28;20693;-91
2023/01/04 10:11:19;;;;;;;2.15;0.80;;;14.80;99.90;;;;;;4955233;28;20401;-89
2023/01/04 10:14:12;;;;;;;2.25;0.93;;;14.80;99.90;;;;;;4985486;28;20057;-89
2023/01/04 10:17:09;;;;;;;2.22;0.80;;;14.80;99.90;;;;;;4992365;28;20124;-88
2023/01/04 10:19:59;;;;;;;1.27;0.80;;;14.80;99.90;;;;;;4992640;28;20029;-89
2023/01/04 10:22:51;;;;;;;1.42;0.65;;;14.80;99.90;;;;;;4987632;28;20478;-90
2023/01/04 10:25:20;;;;;;;2.58;1.00;;;14.80;99.90;;;;;;4998928;28;20030;-91
2023/01/04 10:28:19;;;;;;;1.88;0.68;;;14.80;99.90;;;;;;4992689;28;20048;-92
2023/01/04 10:30:54;;;;;;;1.08;0.80;;;14.80;99.90;;;;;;4955602;28;20147;-86
2023/01/04 10:33:31;;;;;;;1.00;0.50;;;14.70;99.90;;;;;;4998740;28;20072;-88
2023/01/04 10:35:57;;;;;;;1.98;0.80;;;14.70;99.90;;;;;;5013871;28;20776;-91
2023/01/04 10:38:28;;;;;;;1.95;0.80;;;14.70;99.90;;;;;;4973671;28;20033;-88
2023/01/04 10:40:56;;;;;;;1.67;0.80;;;14.60;99.90;;;;;;4993815;28;20749;-89
2023/01/04 10:43:38;;;;;;;1.50;0.90;;;14.60;99.90;;;;;;4979078;28;20143;-88
2023/01/04 10:46:11;;;;;;;3.97;0.80;;;14.60;99.90;;;;;;4989616;28;20021;-89
2023/01/04 10:48:48;;;;;;;1.38;0.70;;;14.50;99.90;;;;;;4977415;28;20204;-91
2023/01/04 10:51:21;;;;;;;1.08;0.60;;;14.50;99.90;;;;;;4991701;28;20338;-87
2023/01/04 10:53:59;;;;;;;1.55;0.90;;;14.40;99.90;;;;;;4969682;28;20031;-89
2023/01/04 10:56:44;;;;;;;2.17;0.80;;;14.40;99.90;;;;;;4992716;28;20030;-87
2023/01/04 10:59:22;;;;;;;1.37;0.67;;;14.40;99.90;;;;;;4996410;28;20045;-89
2023/01/04 11:01:51;;;;;;;1.20;0.70;;;14.40;99.90;;;;;;4991638;28;20108;-88
2023/01/04 11:04:31;;;;;;;1.00;0.80;;;14.30;99.90;;;;;;4995720;28;20116;-89
2023/01/04 11:07:15;;;;;;;1.48;0.70;;;14.30;99.90;;;;;;4970315;28;20315;-88
2023/01/04 11:10:08;;;;;;;1.33;0.60;;;14.30;99.90;;;;;;4967928;28;20080;-88
2023/01/04 11:12:34;;;;;;;1.33;0.80;;;14.30;99.90;;;;;;4969910;28;20038;-90
2023/01/04 11:15:00;;;;;;;2.38;0.70;;;14.20;99.90;;;;;;4959516;28;20675;-88
2023/01/04 11:17:26;;;;;;;1.73;0.70;;;14.20;99.90;;;;;;4993430;28;20108;-90
2023/01/04 11:19:53;;;;;;;1.70;0.63;;;14.30;99.90;;;;;;4981549;28;20110;-88
2023/01/04 11:22:36;;;;;;;1.20;0.70;;;14.20;99.90;;;;;;4993547;28;23219;-89
2023/01/04 11:25:09;;;;;;;1.38;0.63;;;14.20;99.90;;;;;;4986408;28;20084;-89
2023/01/04 11:27:56;;;;;;;2.22;0.90;;;14.20;99.90;;;;;;4992347;28;20033;-88
2023/01/04 11:30:31;;;;;;;1.10;0.60;;;14.20;99.90;;;;;;4989978;28;20065;-88
2023/01/04 11:33:08;;;;;;;2.03;0.60;;;14.20;99.90;;;;;;5004178;28;20037;-87
2023/01/04 11:35:44;;;;;;;1.03;0.60;;;14.20;99.90;;;;;;4994324;28;20470;-89
2023/01/04 11:38:11;;;;;;;0.88;0.50;;;14.20;99.90;;;;;;4977619;28;20521;-88
2023/01/04 11:40:38;;;;;;;0.90;0.60;;;14.20;99.90;;;;;;5000392;28;20026;-90
2023/01/04 11:43:16;;;;;;;0.50;0.50;;;14.20;99.90;;;;;;4974503;28;20017;-88
2023/01/04 11:45:57;;;;;;;0.50;0.50;;;14.20;99.90;;;;;;4965445;28;20240;-91
2023/01/04 11:48:50;;;;;;;0.60;0.60;;;14.20;99.90;;;;;;4999052;28;20862;-88
2023/01/04 11:51:27;;;;;;;1.25;0.57;;;14.20;99.90;;;;;;4971921;28;20040;-87
2023/01/04 11:53:56;;;;;;;1.15;0.60;;;14.30;99.90;;;;;;5008196;28;20442;-89
2023/01/04 11:56:23;;;;;;;0.60;0.60;;;14.30;99.90;;;;;;4984313;28;20051;-88
2023/01/04 11:59:16;;;;;;;0.77;0.60;;;14.30;99.90;;;;;;5012834;28;20052;-89
2023/01/04 12:01:51;;;;;;;0.87;0.60;;;14.30;99.90;;;;;;4958117;28;20039;-88
2023/01/04 12:04:21;;;;;;;1.00;0.60;;;14.30;99.90;;;;;;4975267;28;20398;-89
2023/01/04 12:07:12;;;;;;;1.75;0.80;;;14.30;99.90;;;;;;4996930;28;20025;-88
2023/01/04 12:09:38;;;;;;;0.80;0.70;;;14.30;99.90;;;;;;4982714;28;20574;-87
2023/01/04 12:12:04;;;;;;;1.25;0.80;;;14.30;99.90;;;;;;4990745;28;20022;-87
2023/01/04 12:14:35;;;;;;;1.10;0.60;;;14.30;99.90;;;;;;4994301;28;20025;-87
2023/01/04 12:17:12;;;;;;;1.25;0.70;;;14.30;99.90;;;;;;4997718;28;20024;-87
2023/01/04 12:19:41;;;;;;;1.10;0.70;;;14.30;99.90;;;;;;4970917;28;20674;-87
2023/01/04 12:22:22;;;;;;;1.30;0.70;;;14.40;99.90;;;;;;4998738;28;20089;-88
2023/01/04 12:24:48;;;;;;;0.90;0.70;;;14.40;99.90;;;;;;4999458;28;20553;-88
2023/01/04 12:27:14;;;;;;;0.70;0.70;;;14.40;99.90;;;;;;4990349;28;20025;-88
2023/01/04 12:29:42;;;;;;;1.13;0.70;;;14.40;99.90;;;;;;4995430;28;20032;-88
2023/01/04 12:32:10;;;;;;;0.63;0.60;;;14.40;99.90;;;;;;4991356;28;20026;-89
2023/01/04 12:34:36;;;;;;;1.48;0.82;;;14.40;99.90;;;;;;4984097;28;20596;-86
2023/01/04 12:37:04;;;;;;;1.03;0.63;;;14.40;99.90;;;;;;4981778;28;20021;-90
2023/01/04 12:39:45;;;;;;;0.95;0.70;;;14.40;99.90;;;;;;4995137;28;20251;-89
2023/01/04 12:42:17;;;;;;;0.60;0.60;;;14.40;99.90;;;;;;4996274;28;20044;-89
2023/01/04 12:44:45;;;;;;;0.88;0.70;;;14.40;99.90;;;;;;4988325;28;20037;-90
2023/01/04 12:50:07;;;;;;;0.75;0.63;;;14.40;99.90;;;;;;5008997;28;20164;-87
2023/01/04 12:52:32;;;;;;;1.02;0.50;;;14.50;99.90;;;;;;5009367;28;20151;-88
2023/01/04 12:55:00;;;;;;;0.97;0.60;;;14.40;99.90;;;;;;4998530;28;20026;-90
2023/01/04 12:57:37;;;;;;;1.17;0.70;;;14.40;99.90;;;;;;4990966;28;20234;-89
2023/01/04 13:00:13;;;;;;;1.10;0.60;;;14.50;99.90;;;;;;4988338;28;20562;-88
2023/01/04 13:02:58;;;;;;;0.75;0.60;;;14.50;99.90;;;;;;4979828;28;20022;-86
2023/01/04 13:05:36;;;;;;;0.88;0.50;;;14.50;99.90;;;;;;4963290;28;20113;-89
2023/01/04 13:08:07;;;;;;;0.50;0.50;;;14.50;99.90;;;;;;5018230;28;20032;-88
2023/01/04 13:10:45;;;;;;;0.60;0.60;;;14.50;99.90;;;;;;5003440;28;20090;-87
2023/01/04 13:13:34;;;;;;;0.90;0.60;;;14.50;99.90;;;;;;5031368;28;20277;-87
2023/01/04 13:15:59;;;;;;;1.38;0.70;;;14.50;99.90;;;;;;5006974;28;20025;-88
2023/01/04 13:18:46;;;;;;;1.00;0.70;;;14.50;99.90;;;;;;4992947;28;20885;-88
2023/01/04 13:21:18;;;;;;;1.08;0.60;;;14.50;99.90;;;;;;5029604;28;20872;-89
2023/01/04 13:23:55;;;;;;;0.70;0.50;;;14.50;99.90;;;;;;5034233;28;20029;-84
2023/01/04 13:26:30;;;;;;;0.68;0.50;;;14.60;99.90;;;;;;4997479;28;20025;-90
2023/01/04 13:29:15;;;;;;;0.73;0.70;;;14.60;99.90;;;;;;5012394;28;20057;-90
2023/01/04 13:31:52;;;;;;;0.87;0.50;;;14.60;99.90;;;;;;5015218;28;20029;-88
2023/01/04 13:34:32;;;;;;;0.75;0.60;;;14.60;99.90;;;;;;4989155;28;20064;-88
2023/01/04 13:37:01;;;;;;;0.73;0.68;;;14.60;99.90;;;;;;5017489;28;20078;-88
2023/01/04 13:39:27;;;;;;;0.88;0.60;;;14.70;99.90;;;;;;4994204;28;20259;-89
2023/01/04 13:41:55;;;;;;;0.68;0.60;;;14.60;99.90;;;;;;5000992;28;20059;-90
2023/01/04 13:44:55;;;;;;;1.00;0.70;;;14.70;99.90;;;;;;4994303;28;20029;-88
2023/01/04 13:47:20;;;;;;;2.25;0.70;;;14.70;99.90;;;;;;5015977;28;20345;-91
2023/01/04 13:49:47;;;;;;;1.20;0.70;;;14.70;99.90;;;;;;4978796;28;20017;-90
2023/01/04 13:52:21;;;;;;;0.90;0.80;;;14.80;99.90;;;;;;4998597;28;20041;-88
2023/01/04 13:54:47;;;;;;;0.88;0.70;;;14.80;99.90;;;;;;5014549;28;20028;-89